createdAt,value
2022-10-26T00:01:08.569Z,7.40
2022-10-26T00:03:42.835Z,7.72
2022-10-26T00:06:15.784Z,7.47
2022-10-26T00:08:43.436Z,6.93
2022-10-26T00:11:11.549Z,7.72
2022-10-26T00:13:40.026Z,7.90
2022-10-26T00:16:12.908Z,7.88
2022-10-26T00:18:40.674Z,7.32
2022-10-26T00:21:09.792Z,8.20
2022-10-26T00:23:37.664Z,7.68
2022-10-26T00:26:04.658Z,7.75
2022-10-26T00:28:32.313Z,8.02
2022-10-26T00:31:04.771Z,7.70
2022-10-26T00:33:32.616Z,8.15
2022-10-26T00:36:00.156Z,7.40
2022-10-26T00:38:27.843Z,7.28
2022-10-26T00:40:55.183Z,6.78
2022-10-26T00:43:22.452Z,7.03
2022-10-26T00:45:55.570Z,6.72
2022-10-26T00:48:34.397Z,7.45
2022-10-26T00:51:04.845Z,7.47
2022-10-26T00:53:33.292Z,8.50
2022-10-26T00:56:01.316Z,9.02
2022-10-26T00:58:29.040Z,9.40
2022-10-26T01:00:56.056Z,10.27
2022-10-26T01:03:28.161Z,10.32
2022-10-26T01:05:57.691Z,10.68
2022-10-26T01:08:25.791Z,10.57
2022-10-26T01:10:52.910Z,10.23
2022-10-26T01:13:20.676Z,9.48
2022-10-26T01:16:32.777Z,10.15
2022-10-26T01:19:24.458Z,10.10
2022-10-26T01:22:00.496Z,10.35
2022-10-26T01:24:43.021Z,10.10
2022-10-26T01:27:15.888Z,8.93
2022-10-26T01:29:52.073Z,8.90
2022-10-26T01:32:35.205Z,8.55
2022-10-26T01:35:10.490Z,9.05
2022-10-26T01:37:45.066Z,10.07
2022-10-26T01:40:21.868Z,10.82
2022-10-26T01:42:53.503Z,12.82
2022-10-26T01:45:21.106Z,13.00
2022-10-26T01:47:49.332Z,12.45
2022-10-26T01:50:18.777Z,12.40
2022-10-26T01:52:49.821Z,12.95
2022-10-26T01:55:35.510Z,11.98
2022-10-26T01:58:18.208Z,12.27
2022-10-26T02:01:12.269Z,12.63
2022-10-26T02:03:48.262Z,11.77
2022-10-26T02:06:34.269Z,12.40
2022-10-26T02:09:14.082Z,13.00
2022-10-26T02:11:46.650Z,12.75
2022-10-26T02:14:19.896Z,12.50
2022-10-26T02:16:56.293Z,12.20
2022-10-26T02:19:36.254Z,13.38
2022-10-26T02:22:17.118Z,12.68
2022-10-26T02:24:46.075Z,11.98
2022-10-26T02:27:42.827Z,11.60
2022-10-26T02:30:11.791Z,12.55
2022-10-26T02:32:45.154Z,11.35
2022-10-26T02:35:15.770Z,9.60
2022-10-26T02:37:46.969Z,6.95
2022-10-26T02:40:17.450Z,8.45
2022-10-26T02:42:46.996Z,6.88
2022-10-26T02:45:19.443Z,7.35
2022-10-26T02:47:47.024Z,7.13
2022-10-26T02:50:14.687Z,5.95
2022-10-26T02:52:51.393Z,6.53
2022-10-26T02:55:25.547Z,6.95
2022-10-26T02:57:58.159Z,7.28
2022-10-26T03:00:25.395Z,7.18
2022-10-26T03:02:57.329Z,8.90
2022-10-26T03:05:32.697Z,8.50
2022-10-26T03:08:00.664Z,8.40
2022-10-26T03:10:29.965Z,8.30
2022-10-26T03:12:57.306Z,9.27
2022-10-26T03:15:24.387Z,7.88
2022-10-26T03:17:51.938Z,9.68
2022-10-26T03:20:19.231Z,8.88
2022-10-26T03:22:48.314Z,11.23
2022-10-26T03:25:18.360Z,9.85
2022-10-26T03:27:48.313Z,10.40
2022-10-26T03:30:15.448Z,9.27
2022-10-26T03:32:42.768Z,10.00
2022-10-26T03:35:09.712Z,9.20
2022-10-26T03:37:36.847Z,9.88
2022-10-26T03:40:04.351Z,10.10
2022-10-26T03:42:38.965Z,11.35
2022-10-26T03:45:07.312Z,11.88
2022-10-26T03:47:34.653Z,12.07
2022-10-26T03:50:01.772Z,13.85
2022-10-26T03:52:29.018Z,14.20
2022-10-26T03:54:58.230Z,13.43
2022-10-26T03:57:25.623Z,13.13
2022-10-26T03:59:52.535Z,12.32
2022-10-26T04:02:19.622Z,12.40
2022-10-26T04:04:46.538Z,11.50
2022-10-26T04:07:13.699Z,10.70
2022-10-26T04:09:40.784Z,10.05
2022-10-26T04:12:08.030Z,10.52
2022-10-26T04:14:35.035Z,10.88
2022-10-26T04:17:02.234Z,12.02
2022-10-26T04:19:29.144Z,12.07
2022-10-26T04:21:56.301Z,14.25
2022-10-26T04:24:23.207Z,14.10
2022-10-26T04:26:50.609Z,13.85
2022-10-26T04:29:19.808Z,14.05
2022-10-26T04:31:47.827Z,14.00
2022-10-26T04:34:14.844Z,13.85
2022-10-26T04:36:42.023Z,14.65
2022-10-26T04:39:09.000Z,13.90
2022-10-26T04:41:36.140Z,13.73
2022-10-26T04:44:03.045Z,12.65
2022-10-26T04:46:32.487Z,13.48
2022-10-26T04:48:59.390Z,14.50
2022-10-26T04:51:26.912Z,14.00
2022-10-26T04:53:55.027Z,13.65
2022-10-26T04:56:22.249Z,13.10
2022-10-26T04:58:53.313Z,14.90
2022-10-26T05:01:20.925Z,14.23
2022-10-26T05:03:53.064Z,14.13
2022-10-26T05:06:21.094Z,13.50
2022-10-26T05:08:48.036Z,13.73
2022-10-26T05:11:15.412Z,13.48
2022-10-26T05:13:42.435Z,14.43
2022-10-26T05:16:09.624Z,15.23
2022-10-26T05:18:39.534Z,15.35
2022-10-26T05:21:06.769Z,14.93
2022-10-26T05:23:33.806Z,16.13
2022-10-26T05:26:00.915Z,15.52
2022-10-26T05:28:27.878Z,14.07
2022-10-26T05:30:55.070Z,14.90
2022-10-26T05:33:21.956Z,15.00
2022-10-26T05:35:49.152Z,13.88
2022-10-26T05:38:18.063Z,13.85
2022-10-26T05:40:49.712Z,14.05
2022-10-26T05:43:17.573Z,14.20
2022-10-26T05:45:49.533Z,13.00
2022-10-26T05:48:16.541Z,13.18
2022-10-26T05:50:46.265Z,13.88
2022-10-26T05:53:13.302Z,15.07
2022-10-26T05:55:40.930Z,13.85
2022-10-26T05:58:12.718Z,14.57
2022-10-26T06:00:56.612Z,15.55
2022-10-26T06:03:36.333Z,14.65
2022-10-26T06:06:06.573Z,15.38
2022-10-26T06:08:34.840Z,15.75
2022-10-26T06:11:07.913Z,16.08
2022-10-26T06:13:35.163Z,16.52
2022-10-26T06:16:14.637Z,14.45
2022-10-26T06:19:03.205Z,15.32
2022-10-26T06:22:01.739Z,14.45
2022-10-26T06:24:50.109Z,15.05
2022-10-26T06:27:42.006Z,15.75
2022-10-26T06:30:11.903Z,14.55
2022-10-26T06:32:43.655Z,15.07
2022-10-26T06:35:10.753Z,14.75
2022-10-26T06:37:39.777Z,15.93
2022-10-26T06:40:07.485Z,15.18
2022-10-26T06:42:35.529Z,14.93
2022-10-26T06:45:02.934Z,15.40
2022-10-26T06:47:43.333Z,15.38
2022-10-26T06:50:38.137Z,13.93
2022-10-26T06:53:05.285Z,13.55
2022-10-26T06:55:43.962Z,12.90
2022-10-26T06:58:17.916Z,13.00
2022-10-26T07:00:47.054Z,12.88
2022-10-26T07:03:14.214Z,12.80
2022-10-26T07:05:45.511Z,13.73
2022-10-26T07:08:12.974Z,12.07
2022-10-26T07:10:40.503Z,12.45
2022-10-26T07:13:09.199Z,11.38
2022-10-26T07:15:37.427Z,11.55
2022-10-26T07:18:06.792Z,12.23
2022-10-26T07:20:39.104Z,11.20
2022-10-26T07:23:12.803Z,10.93
2022-10-26T07:25:40.712Z,10.80
2022-10-26T07:28:10.538Z,10.95
2022-10-26T07:30:40.047Z,10.07
2022-10-26T07:33:13.477Z,10.27
2022-10-26T07:35:41.133Z,11.05
2022-10-26T07:38:08.975Z,10.50
2022-10-26T07:40:37.250Z,9.98
2022-10-26T07:43:04.844Z,10.02
2022-10-26T07:45:34.831Z,10.10
2022-10-26T07:48:07.312Z,10.27
2022-10-26T07:50:34.375Z,10.88
2022-10-26T07:53:01.499Z,10.15
2022-10-26T07:55:28.414Z,10.68
2022-10-26T07:57:56.338Z,10.80
2022-10-26T08:00:28.987Z,10.25
2022-10-26T08:02:56.896Z,10.85
2022-10-26T08:05:24.206Z,11.43
2022-10-26T08:07:51.750Z,10.77
2022-10-26T08:10:19.810Z,11.38
2022-10-26T08:12:47.096Z,11.18
2022-10-26T08:15:14.336Z,10.38
2022-10-26T08:17:41.625Z,10.43
2022-10-26T08:20:11.705Z,11.27
2022-10-26T08:22:39.008Z,9.65
2022-10-26T08:25:08.773Z,10.88
2022-10-26T08:27:35.944Z,10.63
2022-10-26T08:30:03.038Z,10.23
2022-10-26T08:32:30.260Z,11.20
2022-10-26T08:34:57.269Z,10.77
2022-10-26T08:37:24.465Z,11.40
2022-10-26T08:39:54.692Z,10.95
2022-10-26T08:42:30.523Z,12.05
2022-10-26T08:45:35.697Z,10.98
2022-10-26T08:48:15.762Z,10.55
2022-10-26T08:51:01.359Z,12.10
2022-10-26T08:53:43.330Z,12.40
2022-10-26T08:56:26.492Z,12.95
2022-10-26T08:59:01.479Z,13.13
2022-10-26T09:04:04.194Z,13.20
2022-10-26T09:06:58.016Z,14.25
2022-10-26T09:09:39.318Z,18.10
2022-10-26T09:12:29.678Z,18.92
2022-10-26T09:15:19.384Z,19.90
2022-10-26T09:18:04.242Z,19.95
2022-10-26T09:21:04.401Z,21.65
2022-10-26T09:23:43.502Z,20.77
2022-10-26T09:26:15.304Z,20.23
2022-10-26T09:28:45.773Z,20.25
2022-10-26T09:31:16.839Z,20.92
2022-10-26T09:33:44.759Z,20.25
2022-10-26T09:36:22.073Z,20.50
2022-10-26T09:39:14.091Z,21.38
2022-10-26T09:41:46.150Z,21.05
2022-10-26T09:44:55.097Z,20.38
2022-10-26T09:47:41.141Z,19.98
2022-10-26T09:50:17.237Z,20.80
2022-10-26T09:52:44.838Z,19.92
2022-10-26T09:55:15.623Z,20.60
2022-10-26T09:57:46.474Z,19.75
2022-10-26T10:00:19.415Z,21.20
2022-10-26T10:02:52.185Z,20.40
2022-10-26T10:05:49.891Z,21.63
2022-10-26T10:08:22.157Z,22.40
2022-10-26T10:11:09.530Z,23.40
2022-10-26T10:13:39.834Z,23.15
2022-10-26T10:16:10.382Z,23.15
2022-10-26T10:18:39.227Z,22.33
2022-10-26T10:21:07.916Z,23.13
2022-10-26T10:23:37.687Z,24.08
2022-10-26T10:26:11.318Z,22.25
2022-10-26T10:28:41.217Z,22.00
2022-10-26T10:31:32.260Z,21.08
2022-10-26T10:33:59.925Z,23.38
2022-10-26T10:36:32.479Z,23.13
2022-10-26T10:39:00.661Z,23.95
2022-10-26T10:41:27.545Z,23.42
2022-10-26T10:44:19.535Z,21.95
2022-10-26T10:46:49.078Z,22.48
2022-10-26T10:49:20.412Z,22.15
2022-10-26T10:51:48.781Z,22.42
2022-10-26T10:54:31.181Z,22.33
2022-10-26T10:57:25.537Z,22.30
2022-10-26T11:00:09.477Z,20.77
2022-10-26T11:03:00.097Z,21.67
2022-10-26T11:05:39.419Z,21.45
2022-10-26T11:08:13.011Z,21.50
2022-10-26T11:10:50.616Z,21.05
2022-10-26T11:13:23.886Z,21.67
2022-10-26T11:15:59.653Z,23.75
2022-10-26T11:18:33.967Z,23.88
2022-10-26T11:21:07.317Z,23.48
2022-10-26T11:23:47.250Z,23.95
2022-10-26T11:26:23.376Z,22.70
2022-10-26T11:29:02.805Z,23.15
2022-10-26T11:31:51.801Z,23.50
2022-10-26T11:34:48.113Z,23.90
2022-10-26T11:37:34.751Z,23.17
2022-10-26T11:40:20.764Z,22.55
2022-10-26T11:43:04.082Z,21.02
2022-10-26T11:45:46.252Z,21.42
2022-10-26T11:48:20.171Z,19.60
2022-10-26T11:50:52.513Z,21.35
2022-10-26T11:53:28.564Z,21.30
2022-10-26T11:55:57.029Z,19.38
2022-10-26T11:58:27.856Z,17.02
2022-10-26T12:01:06.893Z,26.20
2022-10-26T12:03:38.964Z,21.48
2022-10-26T12:06:06.317Z,17.05
2022-10-26T12:08:41.390Z,18.17
2022-10-26T12:11:14.690Z,16.50
2022-10-26T12:14:34.252Z,17.35
2022-10-26T12:17:12.804Z,16.58
2022-10-26T12:20:00.627Z,16.05
2022-10-26T12:22:37.725Z,15.60
2022-10-26T12:25:18.845Z,16.17
2022-10-26T12:27:45.790Z,14.98
2022-10-26T12:30:18.602Z,16.05
2022-10-26T12:32:45.730Z,18.15
2022-10-26T12:35:37.546Z,18.23
2022-10-26T12:38:30.269Z,19.55
2022-10-26T12:41:06.869Z,17.13
2022-10-26T12:43:36.523Z,18.08
2022-10-26T12:46:12.876Z,17.48
2022-10-26T12:48:48.414Z,16.98
2022-10-26T12:51:18.433Z,17.08
2022-10-26T12:54:34.075Z,16.98
2022-10-26T12:57:19.490Z,18.45
2022-10-26T12:59:58.826Z,17.70
2022-10-26T13:03:01.112Z,17.65
2022-10-26T13:05:49.441Z,16.42
2022-10-26T13:08:17.408Z,15.98
2022-10-26T13:11:01.966Z,16.45
2022-10-26T13:13:33.497Z,17.27
2022-10-26T13:16:02.236Z,16.48
2022-10-26T13:18:32.490Z,17.17
2022-10-26T13:21:05.360Z,17.40
2022-10-26T13:23:37.883Z,17.33
2022-10-26T13:26:06.537Z,18.23
2022-10-26T13:28:42.123Z,24.20
2022-10-26T13:31:14.299Z,22.85
2022-10-26T13:33:46.414Z,21.10
2022-10-26T13:36:38.604Z,18.58
2022-10-26T13:39:20.228Z,19.55
2022-10-26T13:41:51.235Z,19.08
2022-10-26T13:44:31.110Z,18.27
2022-10-26T13:47:12.406Z,18.80
2022-10-26T13:49:46.629Z,19.20
2022-10-26T13:52:24.059Z,19.23
2022-10-26T13:54:59.245Z,20.92
2022-10-26T13:57:43.123Z,21.65
2022-10-26T14:00:19.444Z,20.73
2022-10-26T14:02:46.944Z,21.40
2022-10-26T14:05:17.053Z,21.77
2022-10-26T14:07:52.620Z,21.83
2022-10-26T14:10:38.164Z,21.02
2022-10-26T14:13:13.451Z,21.58
2022-10-26T14:15:46.353Z,21.42
2022-10-26T14:18:24.026Z,20.98
2022-10-26T14:20:56.043Z,22.00
2022-10-26T14:23:27.871Z,21.23
2022-10-26T14:25:59.002Z,21.73
2022-10-26T14:28:29.711Z,22.50
2022-10-26T14:31:24.064Z,21.25
2022-10-26T14:33:52.439Z,22.60
2022-10-26T14:36:23.918Z,22.70
2022-10-26T14:38:57.695Z,22.02
2022-10-26T14:41:26.564Z,23.25
2022-10-26T14:43:57.002Z,23.60
2022-10-26T14:46:24.761Z,25.95
2022-10-26T14:49:01.224Z,26.00
2022-10-26T14:51:30.235Z,27.27
2022-10-26T14:54:01.077Z,24.85
2022-10-26T14:56:36.865Z,24.20
2022-10-26T14:59:24.506Z,26.90
2022-10-26T15:02:10.767Z,33.22
2022-10-26T15:07:12.449Z,30.10
2022-10-26T15:09:42.294Z,33.38
2022-10-26T15:12:24.147Z,26.02
2022-10-26T15:14:52.348Z,28.00
2022-10-26T15:17:27.771Z,27.33
2022-10-26T15:19:55.441Z,27.88
2022-10-26T15:22:31.721Z,28.85
2022-10-26T15:25:04.304Z,28.58
2022-10-26T15:27:31.623Z,31.40
2022-10-26T15:30:15.175Z,36.72
2022-10-26T15:32:42.605Z,27.38
2022-10-26T15:35:34.272Z,28.08
2022-10-26T15:38:01.736Z,30.30
2022-10-26T15:40:31.406Z,32.92
2022-10-26T15:43:00.920Z,34.58
2022-10-26T15:45:36.620Z,31.38
2022-10-26T15:48:19.267Z,30.88
2022-10-26T15:50:46.279Z,29.63
2022-10-26T15:53:21.118Z,31.60
2022-10-26T15:55:51.436Z,33.58
2022-10-26T15:58:19.041Z,36.15
2022-10-26T16:00:49.230Z,35.22
2022-10-26T16:03:21.904Z,31.45
2022-10-26T16:06:00.667Z,30.10
2022-10-26T16:08:30.954Z,31.45
2022-10-26T16:11:01.228Z,32.08
2022-10-26T16:13:28.888Z,32.13
2022-10-26T16:15:56.421Z,31.40
2022-10-26T16:18:24.334Z,32.63
2022-10-26T16:20:51.830Z,32.72
2022-10-26T16:23:19.593Z,32.38
2022-10-26T16:25:47.745Z,33.10
2022-10-26T16:28:17.003Z,33.80
2022-10-26T16:30:46.006Z,39.00
2022-10-26T16:33:14.835Z,36.10
2022-10-26T16:35:42.414Z,35.85
2022-10-26T16:38:10.196Z,35.13
2022-10-26T16:40:37.816Z,37.67
2022-10-26T16:43:07.113Z,36.03
2022-10-26T16:45:36.660Z,37.22
2022-10-26T16:48:07.410Z,37.88
2022-10-26T16:50:36.418Z,37.08
2022-10-26T16:53:04.585Z,40.83
2022-10-26T16:55:33.994Z,39.33
2022-10-26T16:58:01.865Z,37.88
2022-10-26T17:00:31.187Z,40.67
2022-10-26T17:03:01.024Z,42.25
2022-10-26T17:05:30.714Z,41.15
2022-10-26T17:07:58.563Z,40.55
2022-10-26T17:10:28.612Z,40.17
2022-10-26T17:12:57.289Z,41.38
2022-10-26T17:15:28.887Z,42.88
2022-10-26T17:18:00.746Z,42.17
2022-10-26T17:20:31.085Z,43.22
2022-10-26T17:23:01.118Z,42.70
2022-10-26T17:25:30.254Z,42.05
2022-10-26T17:28:01.010Z,41.45
2022-10-26T17:30:34.991Z,42.25
2022-10-26T17:33:03.574Z,42.55
2022-10-26T17:35:34.102Z,40.95
2022-10-26T17:38:04.096Z,42.45
2022-10-26T17:40:33.429Z,43.03
2022-10-26T17:43:02.107Z,39.88
2022-10-26T17:45:31.389Z,42.20
2022-10-26T17:47:59.951Z,41.20
2022-10-26T17:50:31.148Z,41.72
2022-10-26T17:53:00.668Z,44.30
2022-10-26T17:55:29.735Z,40.80
2022-10-26T17:57:58.700Z,44.00
2022-10-26T18:00:27.266Z,44.47
2022-10-26T18:02:56.210Z,44.80
2022-10-26T18:05:24.969Z,46.20
2022-10-26T18:07:57.360Z,45.50
2022-10-26T18:10:37.498Z,44.38
2022-10-26T18:13:08.726Z,43.35
2022-10-26T18:15:38.701Z,43.70
2022-10-26T18:18:11.157Z,43.67
2022-10-26T18:20:42.425Z,44.75
2022-10-26T18:23:11.140Z,55.17
2022-10-26T18:25:41.655Z,45.88
2022-10-26T18:33:17.387Z,46.25
2022-10-26T18:35:48.720Z,45.53
2022-10-26T18:38:18.206Z,44.78
2022-10-26T18:40:53.995Z,43.95
2022-10-26T18:43:23.308Z,46.03
2022-10-26T18:45:52.197Z,46.58
2022-10-26T18:48:23.859Z,53.33
2022-10-26T18:50:52.224Z,51.58
2022-10-26T18:53:21.569Z,48.30
2022-10-26T18:55:52.390Z,46.40
2022-10-26T18:58:21.002Z,45.08
2022-10-26T19:00:53.484Z,46.47
2022-10-26T19:03:23.484Z,43.72
2022-10-26T19:05:55.485Z,43.33
2022-10-26T19:08:27.902Z,44.67
2022-10-26T19:11:02.650Z,46.58
2022-10-26T19:13:31.256Z,42.72
2022-10-26T19:16:40.646Z,45.72
2022-10-26T19:19:12.940Z,46.17
2022-10-26T19:21:45.364Z,46.78
2022-10-26T19:24:20.601Z,45.35
2022-10-26T19:26:52.534Z,45.33
2022-10-26T19:29:21.954Z,43.00
2022-10-26T19:31:58.597Z,46.53
2022-10-26T19:34:27.588Z,44.45
2022-10-26T19:37:00.145Z,44.55
2022-10-26T19:39:28.512Z,41.58
2022-10-26T19:41:56.606Z,44.15
2022-10-26T19:44:28.593Z,45.42
2022-10-26T19:46:57.901Z,42.20
2022-10-26T19:49:27.112Z,44.53
2022-10-26T19:51:59.579Z,45.45
2022-10-26T19:54:28.328Z,43.33
2022-10-26T19:56:59.441Z,42.38
2022-10-26T19:59:28.106Z,44.05
2022-10-26T20:01:58.747Z,44.60
2022-10-26T20:04:31.799Z,41.83
2022-10-26T20:07:01.929Z,41.63
2022-10-26T20:09:30.770Z,42.80
2022-10-26T20:12:00.705Z,43.38
2022-10-26T20:14:30.485Z,41.75
2022-10-26T20:17:00.066Z,39.58
2022-10-26T20:19:30.392Z,43.47
2022-10-26T20:22:00.038Z,42.47
2022-10-26T20:24:29.857Z,43.90
2022-10-26T20:26:59.023Z,41.65
2022-10-26T20:29:28.842Z,42.60
2022-10-26T20:31:59.813Z,44.83
2022-10-26T20:34:30.134Z,42.72
2022-10-26T20:36:58.813Z,41.08
2022-10-26T20:39:30.305Z,38.58
2022-10-26T20:41:59.161Z,39.30
2022-10-26T20:44:35.153Z,38.53
2022-10-26T20:47:03.339Z,39.10
2022-10-26T20:49:31.970Z,39.22
2022-10-26T20:52:20.840Z,38.17
2022-10-26T20:55:16.772Z,39.92
2022-10-26T20:57:53.684Z,39.47
2022-10-26T21:00:21.324Z,36.75
2022-10-26T21:02:52.717Z,39.47
2022-10-26T21:05:21.079Z,38.80
2022-10-26T21:07:52.921Z,38.47
2022-10-26T21:10:22.570Z,38.70
2022-10-26T21:12:49.890Z,36.83
2022-10-26T21:15:17.230Z,35.15
2022-10-26T21:17:46.531Z,38.53
2022-10-26T21:20:13.824Z,38.13
2022-10-26T21:22:40.722Z,39.65
2022-10-26T21:25:08.397Z,40.65
2022-10-26T21:27:35.700Z,37.53
2022-10-26T21:30:03.257Z,40.38
2022-10-26T21:32:30.220Z,38.13
2022-10-26T21:34:57.473Z,37.65
2022-10-26T21:37:27.939Z,38.70
2022-10-26T21:39:55.263Z,37.33
2022-10-26T21:42:22.565Z,37.25
2022-10-26T21:44:49.799Z,35.85
2022-10-26T21:47:16.785Z,34.08
2022-10-26T21:49:43.940Z,33.22
2022-10-26T21:52:11.239Z,35.30
2022-10-26T21:54:38.373Z,35.55
2022-10-26T21:57:07.845Z,39.00
2022-10-26T21:59:35.113Z,36.85
2022-10-26T22:02:02.301Z,38.83
2022-10-26T22:04:29.720Z,37.60
2022-10-26T22:06:56.708Z,35.95
2022-10-26T22:09:23.871Z,34.60
2022-10-26T22:11:50.845Z,34.80
2022-10-26T22:14:18.615Z,35.03
2022-10-26T22:16:45.673Z,33.15
2022-10-26T22:19:15.447Z,33.80
2022-10-26T22:21:42.464Z,32.45
2022-10-26T22:24:09.959Z,33.35
2022-10-26T22:26:37.582Z,34.42
2022-10-26T22:29:07.153Z,34.85
2022-10-26T22:31:37.350Z,36.17
2022-10-26T22:34:15.475Z,33.53
2022-10-26T22:36:43.205Z,34.42
2022-10-26T22:39:10.401Z,33.70
2022-10-26T22:41:39.735Z,34.28
2022-10-26T22:44:07.115Z,33.90
2022-10-26T22:46:34.116Z,32.00
2022-10-26T22:49:02.460Z,31.95
2022-10-26T22:51:34.242Z,31.98
2022-10-26T22:54:03.198Z,30.63
2022-10-26T22:56:31.908Z,33.22
2022-10-26T22:58:59.561Z,31.30
2022-10-26T23:01:32.494Z,33.10
2022-10-26T23:04:00.093Z,34.10
2022-10-26T23:06:30.623Z,35.90
2022-10-26T23:08:58.232Z,37.17
2022-10-26T23:11:27.157Z,35.35
2022-10-26T23:13:55.698Z,34.10
2022-10-26T23:16:23.051Z,40.63
2022-10-26T23:18:50.766Z,37.45
2022-10-26T23:21:17.922Z,37.53
2022-10-26T23:23:45.854Z,36.78
2022-10-26T23:26:15.659Z,37.85
2022-10-26T23:28:44.252Z,34.47
2022-10-26T23:31:19.602Z,39.38
2022-10-26T23:33:47.165Z,36.45
2022-10-26T23:36:14.348Z,43.28
2022-10-26T23:38:41.595Z,39.95
2022-10-26T23:41:10.869Z,39.90
2022-10-26T23:43:40.413Z,41.72
2022-10-26T23:46:07.648Z,38.92
2022-10-26T23:48:34.843Z,36.05
2022-10-26T23:51:02.179Z,36.45
2022-10-26T23:53:29.386Z,46.53
2022-10-26T23:55:56.384Z,43.85
2022-10-26T23:58:25.924Z,36.83
